sensor_id;sensor_type;location;lat;lon;timestamp;temperature;humidity
41344;DHT22;27089;50.022;7.604;2023-02-28T00:00:13;-1.10;99.90
41344;DHT22;27089;50.022;7.604;2023-02-28T00:02:41;-1.10;99.90
41344;DHT22;27089;50.022;7.604;2023-02-28T00:05:10;-1.10;99.90
41344;DHT22;27089;50.022;7.604;2023-02-28T00:07:38;-1.10;99.90
41344;DHT22;27089;50.022;7.604;2023-02-28T00:10:06;-1.10;99.90
41344;DHT22;27089;50.022;7.604;2023-02-28T00:12:36;-1.20;99.90
41344;DHT22;27089;50.022;7.604;2023-02-28T00:15:05;-1.20;99.90
41344;DHT22;27089;50.022;7.604;2023-02-28T00:17:33;-1.20;99.90
41344;DHT22;27089;50.022;7.604;2023-02-28T00:20:00;-1.30;99.90
41344;DHT22;27089;50.022;7.604;2023-02-28T00:22:37;-1.30;99.90
41344;DHT22;27089;50.022;7.604;2023-02-28T00:25:06;-1.30;99.90
41344;DHT22;27089;50.022;7.604;2023-02-28T00:27:35;-1.30;99.90
41344;DHT22;27089;50.022;7.604;2023-02-28T00:30:04;-1.30;99.90
41344;DHT22;27089;50.022;7.604;2023-02-28T00:32:31;-1.30;99.90
41344;DHT22;27089;50.022;7.604;2023-02-28T00:35:00;-1.30;99.90
41344;DHT22;27089;50.022;7.604;2023-02-28T00:37:27;-1.30;99.90
41344;DHT22;27089;50.022;7.604;2023-02-28T00:39:54;-1.30;99.90
41344;DHT22;27089;50.022;7.604;2023-02-28T00:42:21;-1.40;99.90
41344;DHT22;27089;50.022;7.604;2023-02-28T00:44:49;-1.30;99.90
41344;DHT22;27089;50.022;7.604;2023-02-28T00:47:17;-1.30;99.90
41344;DHT22;27089;50.022;7.604;2023-02-28T00:49:44;-1.40;99.90
41344;DHT22;27089;50.022;7.604;2023-02-28T00:52:11;-1.40;99.90
41344;DHT22;27089;50.022;7.604;2023-02-28T00:54:38;-1.40;99.90
41344;DHT22;27089;50.022;7.604;2023-02-28T00:57:05;-1.40;99.90
41344;DHT22;27089;50.022;7.604;2023-02-28T00:59:31;-1.40;99.90
41344;DHT22;27089;50.022;7.604;2023-02-28T01:02:00;-1.40;99.90
41344;DHT22;27089;50.022;7.604;2023-02-28T01:04:27;-1.50;99.90
41344;DHT22;27089;50.022;7.604;2023-02-28T01:06:54;-1.50;99.90
41344;DHT22;27089;50.022;7.604;2023-02-28T01:09:21;-1.50;99.90
41344;DHT22;27089;50.022;7.604;2023-02-28T01:11:48;-1.50;99.90
41344;DHT22;27089;50.022;7.604;2023-02-28T01:14:16;-1.50;99.90
41344;DHT22;27089;50.022;7.604;2023-02-28T01:16:43;-1.50;99.90
41344;DHT22;27089;50.022;7.604;2023-02-28T01:19:12;-1.50;99.90
41344;DHT22;27089;50.022;7.604;2023-02-28T01:21:39;-1.60;99.90
41344;DHT22;27089;50.022;7.604;2023-02-28T01:24:07;-1.60;99.90
41344;DHT22;27089;50.022;7.604;2023-02-28T01:26:34;-1.60;99.90
41344;DHT22;27089;50.022;7.604;2023-02-28T01:29:01;-1.60;99.90
41344;DHT22;27089;50.022;7.604;2023-02-28T01:31:28;-1.60;99.90
41344;DHT22;27089;50.022;7.604;2023-02-28T01:33:55;-1.70;99.90
41344;DHT22;27089;50.022;7.604;2023-02-28T01:36:24;-1.70;99.90
41344;DHT22;27089;50.022;7.604;2023-02-28T01:38:51;-1.80;99.90
41344;DHT22;27089;50.022;7.604;2023-02-28T01:41:20;-1.80;99.90
41344;DHT22;27089;50.022;7.604;2023-02-28T01:44:00;-1.90;99.90
41344;DHT22;27089;50.022;7.604;2023-02-28T01:46:30;-1.90;99.90
41344;DHT22;27089;50.022;7.604;2023-02-28T01:49:02;-2.00;99.90
41344;DHT22;27089;50.022;7.604;2023-02-28T01:51:35;-2.00;99.90
41344;DHT22;27089;50.022;7.604;2023-02-28T01:54:06;-2.00;99.90
41344;DHT22;27089;50.022;7.604;2023-02-28T01:56:43;-2.00;99.90
41344;DHT22;27089;50.022;7.604;2023-02-28T01:59:13;-1.90;99.90
41344;DHT22;27089;50.022;7.604;2023-02-28T02:01:41;-1.90;99.90
41344;DHT22;27089;50.022;7.604;2023-02-28T02:04:09;-2.00;99.90
41344;DHT22;27089;50.022;7.604;2023-02-28T02:06:40;-2.00;99.90
41344;DHT22;27089;50.022;7.604;2023-02-28T02:09:08;-2.00;99.90
41344;DHT22;27089;50.022;7.604;2023-02-28T02:11:35;-2.00;99.90
41344;DHT22;27089;50.022;7.604;2023-02-28T02:14:31;-2.00;99.90
41344;DHT22;27089;50.022;7.604;2023-02-28T02:17:18;-2.10;99.90
41344;DHT22;27089;50.022;7.604;2023-02-28T02:20:22;-2.00;99.90
41344;DHT22;27089;50.022;7.604;2023-02-28T02:35:12;-2.00;99.90
41344;DHT22;27089;50.022;7.604;2023-02-28T02:37:45;-2.10;99.90
41344;DHT22;27089;50.022;7.604;2023-02-28T02:40:17;-2.10;99.90
41344;DHT22;27089;50.022;7.604;2023-02-28T02:42:49;-2.20;99.90
41344;DHT22;27089;50.022;7.604;2023-02-28T02:45:23;-2.20;99.90
41344;DHT22;27089;50.022;7.604;2023-02-28T02:47:51;-2.30;99.90
41344;DHT22;27089;50.022;7.604;2023-02-28T02:50:24;-2.30;99.90
41344;DHT22;27089;50.022;7.604;2023-02-28T02:52:54;-2.40;99.90
41344;DHT22;27089;50.022;7.604;2023-02-28T02:55:23;-2.40;99.90
41344;DHT22;27089;50.022;7.604;2023-02-28T02:57:53;-2.40;99.90
41344;DHT22;27089;50.022;7.604;2023-02-28T03:00:24;-2.50;99.90
41344;DHT22;27089;50.022;7.604;2023-02-28T03:02:54;-2.40;99.90
41344;DHT22;27089;50.022;7.604;2023-02-28T03:05:30;-2.50;99.90
41344;DHT22;27089;50.022;7.604;2023-02-28T03:07:59;-2.50;99.90
41344;DHT22;27089;50.022;7.604;2023-02-28T03:10:36;-2.50;99.90
41344;DHT22;27089;50.022;7.604;2023-02-28T03:16:15;-2.50;99.90
41344;DHT22;27089;50.022;7.604;2023-02-28T03:18:52;-2.50;99.90
41344;DHT22;27089;50.022;7.604;2023-02-28T03:21:27;-2.40;99.90
41344;DHT22;27089;50.022;7.604;2023-02-28T03:24:01;-2.40;99.90
41344;DHT22;27089;50.022;7.604;2023-02-28T03:26:31;-2.50;99.90
41344;DHT22;27089;50.022;7.604;2023-02-28T03:29:04;-2.50;99.90
41344;DHT22;27089;50.022;7.604;2023-02-28T03:31:36;-2.50;99.90
41344;DHT22;27089;50.022;7.604;2023-02-28T03:34:07;-2.40;99.90
41344;DHT22;27089;50.022;7.604;2023-02-28T03:36:39;-2.40;99.90
41344;DHT22;27089;50.022;7.604;2023-02-28T03:39:12;-2.40;99.90
41344;DHT22;27089;50.022;7.604;2023-02-28T03:41:44;-2.30;99.90
41344;DHT22;27089;50.022;7.604;2023-02-28T03:44:24;-2.30;99.90
41344;DHT22;27089;50.022;7.604;2023-02-28T03:46:54;-2.30;99.90
41344;DHT22;27089;50.022;7.604;2023-02-28T03:49:27;-2.30;99.90
41344;DHT22;27089;50.022;7.604;2023-02-28T03:51:58;-2.30;99.90
41344;DHT22;27089;50.022;7.604;2023-02-28T03:54:29;-2.30;99.90
41344;DHT22;27089;50.022;7.604;2023-02-28T03:57:02;-2.30;99.90
41344;DHT22;27089;50.022;7.604;2023-02-28T03:59:34;-2.30;99.90
41344;DHT22;27089;50.022;7.604;2023-02-28T04:02:01;-2.40;99.90
41344;DHT22;27089;50.022;7.604;2023-02-28T04:04:28;-2.40;99.90
41344;DHT22;27089;50.022;7.604;2023-02-28T04:07:03;-2.40;99.90
41344;DHT22;27089;50.022;7.604;2023-02-28T04:09:31;-2.50;99.90
41344;DHT22;27089;50.022;7.604;2023-02-28T04:11:58;-2.50;99.90
41344;DHT22;27089;50.022;7.604;2023-02-28T04:14:26;-2.40;99.90
41344;DHT22;27089;50.022;7.604;2023-02-28T04:16:53;-2.40;99.90
41344;DHT22;27089;50.022;7.604;2023-02-28T04:19:20;-2.50;99.90
41344;DHT22;27089;50.022;7.604;2023-02-28T04:21:48;-2.40;99.90
41344;DHT22;27089;50.022;7.604;2023-02-28T04:24:19;-2.40;99.90
41344;DHT22;27089;50.022;7.604;2023-02-28T04:26:48;-2.40;99.90
41344;DHT22;27089;50.022;7.604;2023-02-28T04:29:19;-2.40;99.90
41344;DHT22;27089;50.022;7.604;2023-02-28T04:31:46;-2.40;99.90
41344;DHT22;27089;50.022;7.604;2023-02-28T04:34:13;-2.50;99.90
41344;DHT22;27089;50.022;7.604;2023-02-28T04:36:40;-2.60;99.90
41344;DHT22;27089;50.022;7.604;2023-02-28T04:39:08;-2.70;99.90
41344;DHT22;27089;50.022;7.604;2023-02-28T04:41:36;-2.70;99.90
41344;DHT22;27089;50.022;7.604;2023-02-28T04:44:03;-2.80;99.90
41344;DHT22;27089;50.022;7.604;2023-02-28T04:46:30;-2.80;99.90
41344;DHT22;27089;50.022;7.604;2023-02-28T04:48:58;-2.80;99.90
41344;DHT22;27089;50.022;7.604;2023-02-28T04:51:25;-2.70;99.90
41344;DHT22;27089;50.022;7.604;2023-02-28T04:53:52;-2.80;99.90
41344;DHT22;27089;50.022;7.604;2023-02-28T04:56:19;-2.80;99.90
41344;DHT22;27089;50.022;7.604;2023-02-28T04:58:48;-2.80;99.90
41344;DHT22;27089;50.022;7.604;2023-02-28T05:01:22;-2.80;99.90
41344;DHT22;27089;50.022;7.604;2023-02-28T05:03:50;-2.90;99.90
41344;DHT22;27089;50.022;7.604;2023-02-28T05:06:18;-2.90;99.90
41344;DHT22;27089;50.022;7.604;2023-02-28T05:08:46;-3.00;99.90
41344;DHT22;27089;50.022;7.604;2023-02-28T05:11:18;-2.90;99.90
41344;DHT22;27089;50.022;7.604;2023-02-28T05:13:45;-2.90;99.90
41344;DHT22;27089;50.022;7.604;2023-02-28T05:16:14;-2.80;99.90
41344;DHT22;27089;50.022;7.604;2023-02-28T05:18:42;-2.80;99.90
41344;DHT22;27089;50.022;7.604;2023-02-28T05:21:25;-2.80;99.90
41344;DHT22;27089;50.022;7.604;2023-02-28T05:23:53;-2.80;99.90
41344;DHT22;27089;50.022;7.604;2023-02-28T05:26:20;-2.80;99.90
41344;DHT22;27089;50.022;7.604;2023-02-28T05:28:47;-2.90;99.90
41344;DHT22;27089;50.022;7.604;2023-02-28T05:31:16;-3.00;99.90
41344;DHT22;27089;50.022;7.604;2023-02-28T05:33:43;-3.10;99.90
41344;DHT22;27089;50.022;7.604;2023-02-28T05:36:10;-3.10;99.90
41344;DHT22;27089;50.022;7.604;2023-02-28T05:38:37;-3.10;99.90
41344;DHT22;27089;50.022;7.604;2023-02-28T05:41:07;-3.20;99.90
41344;DHT22;27089;50.022;7.604;2023-02-28T05:43:35;-3.10;99.90
41344;DHT22;27089;50.022;7.604;2023-02-28T05:46:03;-3.10;99.90
41344;DHT22;27089;50.022;7.604;2023-02-28T05:48:33;-3.00;99.90
41344;DHT22;27089;50.022;7.604;2023-02-28T05:51:00;-2.90;99.90
41344;DHT22;27089;50.022;7.604;2023-02-28T05:53:28;-2.90;99.90
41344;DHT22;27089;50.022;7.604;2023-02-28T05:55:55;-2.90;99.90
41344;DHT22;27089;50.022;7.604;2023-02-28T05:58:22;-2.90;99.90
41344;DHT22;27089;50.022;7.604;2023-02-28T06:00:50;-2.90;99.90
41344;DHT22;27089;50.022;7.604;2023-02-28T06:03:17;-2.90;99.90
41344;DHT22;27089;50.022;7.604;2023-02-28T06:05:46;-2.80;99.90
41344;DHT22;27089;50.022;7.604;2023-02-28T06:08:13;-2.90;99.90
41344;DHT22;27089;50.022;7.604;2023-02-28T06:10:40;-2.90;99.90
41344;DHT22;27089;50.022;7.604;2023-02-28T06:13:07;-2.90;99.90
41344;DHT22;27089;50.022;7.604;2023-02-28T06:15:33;-2.90;99.90
41344;DHT22;27089;50.022;7.604;2023-02-28T06:18:00;-2.90;99.90
41344;DHT22;27089;50.022;7.604;2023-02-28T06:20:27;-2.90;99.90
41344;DHT22;27089;50.022;7.604;2023-02-28T06:22:56;-2.90;99.90
41344;DHT22;27089;50.022;7.604;2023-02-28T06:25:24;-2.90;99.90
41344;DHT22;27089;50.022;7.604;2023-02-28T06:27:51;-2.90;99.90
41344;DHT22;27089;50.022;7.604;2023-02-28T06:30:18;-2.90;99.90
41344;DHT22;27089;50.022;7.604;2023-02-28T06:32:49;-3.00;99.90
41344;DHT22;27089;50.022;7.604;2023-02-28T06:35:16;-3.00;99.90
41344;DHT22;27089;50.022;7.604;2023-02-28T06:37:43;-3.10;99.90
41344;DHT22;27089;50.022;7.604;2023-02-28T06:40:12;-3.00;99.90
41344;DHT22;27089;50.022;7.604;2023-02-28T06:42:39;-3.00;99.90
41344;DHT22;27089;50.022;7.604;2023-02-28T06:45:07;-2.90;99.90
41344;DHT22;27089;50.022;7.604;2023-02-28T06:47:36;-2.80;99.90
41344;DHT22;27089;50.022;7.604;2023-02-28T06:50:04;-2.70;99.90
41344;DHT22;27089;50.022;7.604;2023-02-28T06:52:32;-2.60;99.90
41344;DHT22;27089;50.022;7.604;2023-02-28T06:55:02;-2.40;99.90
41344;DHT22;27089;50.022;7.604;2023-02-28T06:57:31;-2.40;99.90
41344;DHT22;27089;50.022;7.604;2023-02-28T06:59:59;-2.20;99.90
41344;DHT22;27089;50.022;7.604;2023-02-28T07:02:26;-2.20;99.90
41344;DHT22;27089;50.022;7.604;2023-02-28T07:04:53;-2.10;99.90
41344;DHT22;27089;50.022;7.604;2023-02-28T07:07:20;-2.00;99.90
41344;DHT22;27089;50.022;7.604;2023-02-28T07:09:47;-2.00;99.90
41344;DHT22;27089;50.022;7.604;2023-02-28T07:12:14;-1.90;99.90
41344;DHT22;27089;50.022;7.604;2023-02-28T07:14:43;-1.80;99.90
41344;DHT22;27089;50.022;7.604;2023-02-28T07:17:11;-1.80;99.90
41344;DHT22;27089;50.022;7.604;2023-02-28T07:19:38;-1.70;99.90
41344;DHT22;27089;50.022;7.604;2023-02-28T07:22:05;-1.70;99.90
41344;DHT22;27089;50.022;7.604;2023-02-28T07:24:32;-1.60;99.90
41344;DHT22;27089;50.022;7.604;2023-02-28T07:26:59;-1.50;99.90
41344;DHT22;27089;50.022;7.604;2023-02-28T07:29:26;-1.40;99.90
41344;DHT22;27089;50.022;7.604;2023-02-28T07:31:55;-1.20;99.90
41344;DHT22;27089;50.022;7.604;2023-02-28T07:34:22;-1.00;99.90
41344;DHT22;27089;50.022;7.604;2023-02-28T07:36:52;-0.90;99.90
41344;DHT22;27089;50.022;7.604;2023-02-28T07:39:19;-0.70;99.90
41344;DHT22;27089;50.022;7.604;2023-02-28T07:41:46;-0.70;99.90
41344;DHT22;27089;50.022;7.604;2023-02-28T07:44:13;-0.70;99.90
41344;DHT22;27089;50.022;7.604;2023-02-28T07:46:40;-0.80;99.90
41344;DHT22;27089;50.022;7.604;2023-02-28T07:49:08;-0.60;99.90
41344;DHT22;27089;50.022;7.604;2023-02-28T07:51:35;-0.50;99.90
41344;DHT22;27089;50.022;7.604;2023-02-28T07:54:03;-0.40;99.90
41344;DHT22;27089;50.022;7.604;2023-02-28T07:56:30;-0.30;99.90
41344;DHT22;27089;50.022;7.604;2023-02-28T07:58:57;-0.20;99.90
41344;DHT22;27089;50.022;7.604;2023-02-28T08:01:24;-0.10;99.90
41344;DHT22;27089;50.022;7.604;2023-02-28T08:03:51;0.00;99.90
41344;DHT22;27089;50.022;7.604;2023-02-28T08:06:22;0.30;99.90
41344;DHT22;27089;50.022;7.604;2023-02-28T08:08:49;0.40;99.90
41344;DHT22;27089;50.022;7.604;2023-02-28T08:11:17;0.50;99.90
41344;DHT22;27089;50.022;7.604;2023-02-28T08:13:45;0.60;99.90
41344;DHT22;27089;50.022;7.604;2023-02-28T08:16:12;0.60;99.90
41344;DHT22;27089;50.022;7.604;2023-02-28T08:18:42;0.70;99.90
41344;DHT22;27089;50.022;7.604;2023-02-28T08:21:10;0.60;99.90
41344;DHT22;27089;50.022;7.604;2023-02-28T08:23:38;0.60;99.90
41344;DHT22;27089;50.022;7.604;2023-02-28T08:26:06;0.60;99.90
41344;DHT22;27089;50.022;7.604;2023-02-28T08:28:33;0.80;99.90
41344;DHT22;27089;50.022;7.604;2023-02-28T08:31:00;0.80;99.90
41344;DHT22;27089;50.022;7.604;2023-02-28T08:33:28;0.80;99.90
41344;DHT22;27089;50.022;7.604;2023-02-28T08:35:55;0.80;99.90
41344;DHT22;27089;50.022;7.604;2023-02-28T08:38:22;0.80;99.90
41344;DHT22;27089;50.022;7.604;2023-02-28T08:40:57;0.80;99.90
41344;DHT22;27089;50.022;7.604;2023-02-28T08:43:24;0.80;99.90
41344;DHT22;27089;50.022;7.604;2023-02-28T08:45:52;0.70;99.90
41344;DHT22;27089;50.022;7.604;2023-02-28T08:48:19;0.60;99.90
41344;DHT22;27089;50.022;7.604;2023-02-28T08:50:55;0.70;99.90
41344;DHT22;27089;50.022;7.604;2023-02-28T08:53:22;0.60;99.90
41344;DHT22;27089;50.022;7.604;2023-02-28T08:55:57;0.70;99.90
41344;DHT22;27089;50.022;7.604;2023-02-28T08:58:24;0.80;99.90
41344;DHT22;27089;50.022;7.604;2023-02-28T09:00:51;2.10;99.90
41344;DHT22;27089;50.022;7.604;2023-02-28T09:03:18;4.00;99.90
41344;DHT22;27089;50.022;7.604;2023-02-28T09:05:52;5.10;99.90
41344;DHT22;27089;50.022;7.604;2023-02-28T09:08:19;5.20;99.90
41344;DHT22;27089;50.022;7.604;2023-02-28T09:10:46;4.00;99.90
41344;DHT22;27089;50.022;7.604;2023-02-28T09:13:15;3.80;99.90
41344;DHT22;27089;50.022;7.604;2023-02-28T09:15:42;4.10;99.90
41344;DHT22;27089;50.022;7.604;2023-02-28T09:18:09;4.80;99.90
41344;DHT22;27089;50.022;7.604;2023-02-28T09:20:37;4.50;99.90
41344;DHT22;27089;50.022;7.604;2023-02-28T09:23:05;4.10;99.90
41344;DHT22;27089;50.022;7.604;2023-02-28T09:25:32;4.40;99.90
41344;DHT22;27089;50.022;7.604;2023-02-28T09:27:59;4.70;99.90
41344;DHT22;27089;50.022;7.604;2023-02-28T09:30:28;5.20;99.90
41344;DHT22;27089;50.022;7.604;2023-02-28T09:32:55;4.70;99.90
41344;DHT22;27089;50.022;7.604;2023-02-28T09:35:23;4.60;99.90
41344;DHT22;27089;50.022;7.604;2023-02-28T09:37:51;5.10;99.90
41344;DHT22;27089;50.022;7.604;2023-02-28T09:40:19;5.00;99.90
41344;DHT22;27089;50.022;7.604;2023-02-28T09:42:48;5.10;99.90
41344;DHT22;27089;50.022;7.604;2023-02-28T09:45:22;5.00;99.90
41344;DHT22;27089;50.022;7.604;2023-02-28T09:47:55;5.10;99.90
41344;DHT22;27089;50.022;7.604;2023-02-28T09:50:31;5.20;99.90
41344;DHT22;27089;50.022;7.604;2023-02-28T09:53:05;5.60;99.90
41344;DHT22;27089;50.022;7.604;2023-02-28T09:55:40;4.90;99.90
41344;DHT22;27089;50.022;7.604;2023-02-28T09:58:16;4.20;99.90
41344;DHT22;27089;50.022;7.604;2023-02-28T10:00:49;4.10;99.90
41344;DHT22;27089;50.022;7.604;2023-02-28T10:03:35;4.60;99.90
41344;DHT22;27089;50.022;7.604;2023-02-28T10:06:08;4.80;99.90
41344;DHT22;27089;50.022;7.604;2023-02-28T10:08:41;4.60;99.90
41344;DHT22;27089;50.022;7.604;2023-02-28T10:11:12;4.60;99.90
41344;DHT22;27089;50.022;7.604;2023-02-28T10:13:51;4.90;99.90
41344;DHT22;27089;50.022;7.604;2023-02-28T10:16:25;4.90;99.90
41344;DHT22;27089;50.022;7.604;2023-02-28T10:18:59;5.40;99.90
41344;DHT22;27089;50.022;7.604;2023-02-28T10:21:34;4.90;99.90
41344;DHT22;27089;50.022;7.604;2023-02-28T10:24:05;4.80;99.90
41344;DHT22;27089;50.022;7.604;2023-02-28T10:26:38;5.00;99.90
41344;DHT22;27089;50.022;7.604;2023-02-28T10:29:07;5.10;99.90
41344;DHT22;27089;50.022;7.604;2023-02-28T10:31:34;4.00;99.90
41344;DHT22;27089;50.022;7.604;2023-02-28T10:34:03;3.80;99.90
41344;DHT22;27089;50.022;7.604;2023-02-28T10:36:32;3.80;99.90
41344;DHT22;27089;50.022;7.604;2023-02-28T10:38:59;3.80;99.90
41344;DHT22;27089;50.022;7.604;2023-02-28T10:41:28;3.40;99.90
41344;DHT22;27089;50.022;7.604;2023-02-28T10:44:14;3.00;99.90
41344;DHT22;27089;50.022;7.604;2023-02-28T10:46:42;2.60;99.90
41344;DHT22;27089;50.022;7.604;2023-02-28T10:49:17;2.50;99.90
41344;DHT22;27089;50.022;7.604;2023-02-28T10:51:48;2.80;99.90
41344;DHT22;27089;50.022;7.604;2023-02-28T10:54:18;2.80;99.90
41344;DHT22;27089;50.022;7.604;2023-02-28T10:56:45;2.80;99.90
41344;DHT22;27089;50.022;7.604;2023-02-28T10:59:29;2.60;99.90
41344;DHT22;27089;50.022;7.604;2023-02-28T11:01:57;2.40;99.90
41344;DHT22;27089;50.022;7.604;2023-02-28T11:04:36;2.50;99.90
41344;DHT22;27089;50.022;7.604;2023-02-28T11:07:06;2.50;99.90
41344;DHT22;27089;50.022;7.604;2023-02-28T11:09:45;2.40;99.90
41344;DHT22;27089;50.022;7.604;2023-02-28T11:12:21;2.60;99.90
41344;DHT22;27089;50.022;7.604;2023-02-28T11:14:50;2.70;99.90
41344;DHT22;27089;50.022;7.604;2023-02-28T11:17:21;2.60;99.90
41344;DHT22;27089;50.022;7.604;2023-02-28T11:19:53;2.70;99.90
41344;DHT22;27089;50.022;7.604;2023-02-28T11:22:24;2.90;99.90
41344;DHT22;27089;50.022;7.604;2023-02-28T11:24:56;3.30;99.90
41344;DHT22;27089;50.022;7.604;2023-02-28T11:27:48;3.80;99.90
41344;DHT22;27089;50.022;7.604;2023-02-28T11:30:27;3.80;99.90
41344;DHT22;27089;50.022;7.604;2023-02-28T11:32:54;3.60;99.90
41344;DHT22;27089;50.022;7.604;2023-02-28T11:35:26;3.60;99.90
41344;DHT22;27089;50.022;7.604;2023-02-28T11:37:53;3.60;99.90
41344;DHT22;27089;50.022;7.604;2023-02-28T11:40:25;3.30;99.90
41344;DHT22;27089;50.022;7.604;2023-02-28T11:43:04;3.20;99.90
41344;DHT22;27089;50.022;7.604;2023-02-28T11:45:44;2.90;99.90
41344;DHT22;27089;50.022;7.604;2023-02-28T11:48:17;2.80;99.90
41344;DHT22;27089;50.022;7.604;2023-02-28T11:50:56;2.80;99.90
41344;DHT22;27089;50.022;7.604;2023-02-28T11:53:39;2.80;99.90
41344;DHT22;27089;50.022;7.604;2023-02-28T11:56:12;2.80;99.90
41344;DHT22;27089;50.022;7.604;2023-02-28T11:58:50;3.00;99.90
41344;DHT22;27089;50.022;7.604;2023-02-28T12:01:45;3.00;99.90
41344;DHT22;27089;50.022;7.604;2023-02-28T12:04:25;2.90;99.90
41344;DHT22;27089;50.022;7.604;2023-02-28T12:07:06;2.70;99.90
41344;DHT22;27089;50.022;7.604;2023-02-28T12:09:44;2.80;99.90
41344;DHT22;27089;50.022;7.604;2023-02-28T12:12:22;2.90;99.90
41344;DHT22;27089;50.022;7.604;2023-02-28T12:15:02;2.90;99.90
41344;DHT22;27089;50.022;7.604;2023-02-28T12:17:41;2.80;99.90
41344;DHT22;27089;50.022;7.604;2023-02-28T12:20:21;3.00;99.90
41344;DHT22;27089;50.022;7.604;2023-02-28T12:22:59;2.90;99.90
41344;DHT22;27089;50.022;7.604;2023-02-28T12:25:42;3.00;99.90
41344;DHT22;27089;50.022;7.604;2023-02-28T12:28:14;3.10;99.90
41344;DHT22;27089;50.022;7.604;2023-02-28T12:30:49;3.10;99.90
41344;DHT22;27089;50.022;7.604;2023-02-28T12:33:22;3.10;99.90
41344;DHT22;27089;50.022;7.604;2023-02-28T12:35:53;3.30;99.90
41344;DHT22;27089;50.022;7.604;2023-02-28T12:38:26;3.30;99.90
41344;DHT22;27089;50.022;7.604;2023-02-28T12:40:56;3.30;99.90
41344;DHT22;27089;50.022;7.604;2023-02-28T12:43:28;3.20;99.90
41344;DHT22;27089;50.022;7.604;2023-02-28T12:46:00;3.10;99.90
41344;DHT22;27089;50.022;7.604;2023-02-28T12:48:33;3.00;99.90
41344;DHT22;27089;50.022;7.604;2023-02-28T12:51:04;3.10;99.90
41344;DHT22;27089;50.022;7.604;2023-02-28T12:53:43;3.00;99.90
41344;DHT22;27089;50.022;7.604;2023-02-28T12:56:16;3.10;99.90
41344;DHT22;27089;50.022;7.604;2023-02-28T12:58:48;3.20;99.90
41344;DHT22;27089;50.022;7.604;2023-02-28T13:01:55;3.40;99.90
41344;DHT22;27089;50.022;7.604;2023-02-28T13:04:42;3.40;99.90
41344;DHT22;27089;50.022;7.604;2023-02-28T13:10:38;3.60;99.90
41344;DHT22;27089;50.022;7.604;2023-02-28T13:13:05;3.60;99.90
41344;DHT22;27089;50.022;7.604;2023-02-28T13:15:33;3.70;99.90
41344;DHT22;27089;50.022;7.604;2023-02-28T13:18:03;3.80;99.90
41344;DHT22;27089;50.022;7.604;2023-02-28T13:20:34;3.90;99.90
41344;DHT22;27089;50.022;7.604;2023-02-28T13:23:02;3.70;99.90
41344;DHT22;27089;50.022;7.604;2023-02-28T13:25:53;3.60;99.90
41344;DHT22;27089;50.022;7.604;2023-02-28T13:31:21;3.50;99.90
41344;DHT22;27089;50.022;7.604;2023-02-28T13:34:12;3.60;99.90
41344;DHT22;27089;50.022;7.604;2023-02-28T13:36:40;3.60;99.90
41344;DHT22;27089;50.022;7.604;2023-02-28T13:42:32;3.60;99.90
41344;DHT22;27089;50.022;7.604;2023-02-28T13:45:23;3.60;99.90
41344;DHT22;27089;50.022;7.604;2023-02-28T13:47:58;3.50;99.90
41344;DHT22;27089;50.022;7.604;2023-02-28T13:50:32;3.60;99.90
41344;DHT22;27089;50.022;7.604;2023-02-28T13:56:25;3.80;99.90
41344;DHT22;27089;50.022;7.604;2023-02-28T13:59:01;3.70;99.90
41344;DHT22;27089;50.022;7.604;2023-02-28T14:01:48;3.60;99.90
41344;DHT22;27089;50.022;7.604;2023-02-28T14:07:20;3.60;99.90
41344;DHT22;27089;50.022;7.604;2023-02-28T14:09:58;3.60;99.90
41344;DHT22;27089;50.022;7.604;2023-02-28T14:12:53;3.50;99.90
41344;DHT22;27089;50.022;7.604;2023-02-28T14:15:34;3.60;99.90
41344;DHT22;27089;50.022;7.604;2023-02-28T14:18:06;3.50;99.90
41344;DHT22;27089;50.022;7.604;2023-02-28T14:20:40;3.40;99.90
41344;DHT22;27089;50.022;7.604;2023-02-28T14:23:14;3.40;99.90
41344;DHT22;27089;50.022;7.604;2023-02-28T14:25:49;3.50;99.90
41344;DHT22;27089;50.022;7.604;2023-02-28T14:28:26;3.60;99.90
41344;DHT22;27089;50.022;7.604;2023-02-28T14:31:03;3.70;99.90
41344;DHT22;27089;50.022;7.604;2023-02-28T14:36:33;3.50;99.90
41344;DHT22;27089;50.022;7.604;2023-02-28T14:39:04;3.40;99.90
41344;DHT22;27089;50.022;7.604;2023-02-28T14:41:34;3.40;99.90
41344;DHT22;27089;50.022;7.604;2023-02-28T14:44:12;3.50;99.90
41344;DHT22;27089;50.022;7.604;2023-02-28T14:46:43;3.50;99.90
41344;DHT22;27089;50.022;7.604;2023-02-28T14:49:17;3.60;99.90
41344;DHT22;27089;50.022;7.604;2023-02-28T14:51:44;3.60;99.90
41344;DHT22;27089;50.022;7.604;2023-02-28T14:54:15;3.50;99.90
41344;DHT22;27089;50.022;7.604;2023-02-28T14:56:43;3.50;99.90
41344;DHT22;27089;50.022;7.604;2023-02-28T14:59:25;3.50;99.90
41344;DHT22;27089;50.022;7.604;2023-02-28T15:02:17;3.50;99.90
41344;DHT22;27089;50.022;7.604;2023-02-28T15:04:52;3.50;99.90
41344;DHT22;27089;50.022;7.604;2023-02-28T15:07:19;3.60;99.90
41344;DHT22;27089;50.022;7.604;2023-02-28T15:10:10;3.50;99.90
41344;DHT22;27089;50.022;7.604;2023-02-28T15:12:39;3.50;99.90
41344;DHT22;27089;50.022;7.604;2023-02-28T15:15:14;3.50;99.90
41344;DHT22;27089;50.022;7.604;2023-02-28T15:17:45;3.50;99.90
41344;DHT22;27089;50.022;7.604;2023-02-28T15:20:14;3.50;99.90
41344;DHT22;27089;50.022;7.604;2023-02-28T15:22:42;3.50;99.90
41344;DHT22;27089;50.022;7.604;2023-02-28T15:25:13;3.50;99.90
41344;DHT22;27089;50.022;7.604;2023-02-28T15:27:44;3.50;99.90
41344;DHT22;27089;50.022;7.604;2023-02-28T15:30:16;3.50;99.90
41344;DHT22;27089;50.022;7.604;2023-02-28T15:33:02;3.40;99.90
41344;DHT22;27089;50.022;7.604;2023-02-28T15:35:31;3.40;99.90
41344;DHT22;27089;50.022;7.604;2023-02-28T15:38:01;3.30;99.90
41344;DHT22;27089;50.022;7.604;2023-02-28T15:40:30;3.20;99.90
41344;DHT22;27089;50.022;7.604;2023-02-28T15:42:59;3.10;99.90
41344;DHT22;27089;50.022;7.604;2023-02-28T15:45:28;3.10;99.90
41344;DHT22;27089;50.022;7.604;2023-02-28T15:47:57;3.10;99.90
41344;DHT22;27089;50.022;7.604;2023-02-28T15:50:27;3.10;99.90
41344;DHT22;27089;50.022;7.604;2023-02-28T15:52:55;3.10;99.90
41344;DHT22;27089;50.022;7.604;2023-02-28T15:55:26;3.20;99.90
41344;DHT22;27089;50.022;7.604;2023-02-28T15:57:56;3.20;99.90
41344;DHT22;27089;50.022;7.604;2023-02-28T16:00:26;3.10;99.90
41344;DHT22;27089;50.022;7.604;2023-02-28T16:02:56;3.10;99.90
41344;DHT22;27089;50.022;7.604;2023-02-28T16:05:25;3.10;99.90
41344;DHT22;27089;50.022;7.604;2023-02-28T16:07:58;3.10;99.90
41344;DHT22;27089;50.022;7.604;2023-02-28T16:10:27;3.10;99.90
41344;DHT22;27089;50.022;7.604;2023-02-28T16:12:56;3.10;99.90
41344;DHT22;27089;50.022;7.604;2023-02-28T16:15:25;3.00;99.90
41344;DHT22;27089;50.022;7.604;2023-02-28T16:17:53;2.90;99.90
41344;DHT22;27089;50.022;7.604;2023-02-28T16:20:23;2.90;99.90
41344;DHT22;27089;50.022;7.604;2023-02-28T16:22:50;2.90;99.90
41344;DHT22;27089;50.022;7.604;2023-02-28T16:25:19;2.90;99.90
41344;DHT22;27089;50.022;7.604;2023-02-28T16:27:49;2.80;99.90
41344;DHT22;27089;50.022;7.604;2023-02-28T16:30:20;2.80;99.90
41344;DHT22;27089;50.022;7.604;2023-02-28T16:32:47;2.80;99.90
41344;DHT22;27089;50.022;7.604;2023-02-28T16:35:15;2.80;99.90